createdAt,value
2018-04-06T00:01:50.183Z,6.13
2018-04-06T00:04:16.795Z,6.13
2018-04-06T00:06:43.378Z,5.70
2018-04-06T00:09:10.329Z,10.53
2018-04-06T00:11:36.940Z,4.43
2018-04-06T00:14:05.331Z,9.70
2018-04-06T00:16:31.914Z,6.40
2018-04-06T00:18:58.478Z,4.83
2018-04-06T00:21:26.520Z,4.93
2018-04-06T00:23:53.082Z,8.17
2018-04-06T00:26:19.653Z,3.80
2018-04-06T00:28:46.224Z,5.03
2018-04-06T00:31:12.809Z,8.17
2018-04-06T00:33:39.403Z,8.40
2018-04-06T00:36:06.828Z,6.27
2018-04-06T00:38:33.412Z,6.77
2018-04-06T00:41:00.019Z,5.57
2018-04-06T00:43:26.574Z,6.50
2018-04-06T00:45:53.143Z,4.80
2018-04-06T00:48:19.726Z,4.37
2018-04-06T00:50:46.351Z,5.67
2018-04-06T00:53:18.827Z,7.33
2018-04-06T00:55:45.404Z,6.53
2018-04-06T00:58:12.481Z,5.87
2018-04-06T01:00:39.080Z,7.33
2018-04-06T01:03:05.627Z,9.60
2018-04-06T01:05:32.210Z,8.40
2018-04-06T01:07:58.782Z,5.60
2018-04-06T01:10:25.348Z,6.40
2018-04-06T01:12:51.928Z,6.03
2018-04-06T01:15:18.495Z,4.37
2018-04-06T01:17:45.075Z,5.90
2018-04-06T01:20:11.679Z,7.20
2018-04-06T01:22:38.236Z,4.30
2018-04-06T01:25:04.807Z,9.13
2018-04-06T01:27:31.382Z,6.00
2018-04-06T01:29:57.958Z,6.57
2018-04-06T01:32:24.560Z,6.13
2018-04-06T01:34:51.162Z,8.70
2018-04-06T01:37:17.818Z,7.70
2018-04-06T01:39:44.375Z,13.13
2018-04-06T01:42:10.955Z,6.50
2018-04-06T01:44:37.558Z,5.37
2018-04-06T01:47:04.133Z,9.17
2018-04-06T01:49:30.703Z,5.37
2018-04-06T01:51:57.328Z,5.10
2018-04-06T01:54:23.983Z,5.20
2018-04-06T01:56:50.564Z,7.43
2018-04-06T01:59:17.165Z,6.67
2018-04-06T02:01:43.727Z,7.10
2018-04-06T02:04:10.478Z,6.40
2018-04-06T02:06:37.058Z,12.30
2018-04-06T02:09:03.631Z,4.83
2018-04-06T02:11:30.242Z,5.27
2018-04-06T02:13:56.816Z,4.40
2018-04-06T02:16:23.379Z,6.03
2018-04-06T02:18:49.959Z,5.60
2018-04-06T02:21:16.527Z,9.00
2018-04-06T02:23:43.096Z,7.27
2018-04-06T02:26:09.683Z,3.97
2018-04-06T02:28:36.294Z,5.03
2018-04-06T02:31:02.898Z,6.73
2018-04-06T02:33:30.389Z,7.63
2018-04-06T02:35:56.954Z,7.80
2018-04-06T02:38:23.531Z,10.87
2018-04-06T02:40:50.102Z,4.40
2018-04-06T02:43:16.682Z,5.67
2018-04-06T02:45:43.601Z,5.70
2018-04-06T02:48:10.207Z,10.00
2018-04-06T02:50:36.801Z,6.27
2018-04-06T02:53:03.371Z,6.50
2018-04-06T02:55:29.975Z,4.40
2018-04-06T02:57:56.539Z,4.30
2018-04-06T03:00:23.122Z,6.20
2018-04-06T03:02:49.765Z,11.27
2018-04-06T03:05:16.398Z,9.87
2018-04-06T03:07:43.226Z,6.63
2018-04-06T03:10:09.798Z,7.50
2018-04-06T03:12:36.370Z,10.30
2018-04-06T03:15:02.949Z,6.87
2018-04-06T03:17:29.544Z,5.90
2018-04-06T03:19:56.184Z,6.43
2018-04-06T03:22:22.783Z,7.47
2018-04-06T03:24:49.351Z,9.33
2018-04-06T03:27:15.941Z,10.27
2018-04-06T03:29:42.519Z,8.23
2018-04-06T03:32:09.103Z,10.27
2018-04-06T03:34:35.716Z,12.83
2018-04-06T03:37:02.286Z,7.27
2018-04-06T03:39:29.293Z,12.37
2018-04-06T03:41:55.868Z,10.90
2018-04-06T03:44:22.454Z,9.63
2018-04-06T03:46:49.022Z,7.67
2018-04-06T03:49:15.600Z,10.03
2018-04-06T03:51:43.392Z,8.27
2018-04-06T03:54:09.954Z,9.93
2018-04-06T03:56:36.550Z,8.80
2018-04-06T03:59:03.131Z,10.33
2018-04-06T04:01:30.415Z,7.90
2018-04-06T04:03:56.982Z,7.50
2018-04-06T04:06:23.551Z,7.70
2018-04-06T04:08:50.779Z,6.70
2018-04-06T04:11:17.375Z,10.63
2018-04-06T04:13:43.923Z,7.27
2018-04-06T04:16:10.515Z,9.13
2018-04-06T04:18:37.091Z,5.17
2018-04-06T04:21:04.521Z,6.80
2018-04-06T04:23:31.086Z,5.97
2018-04-06T04:25:58.440Z,9.93
2018-04-06T04:28:25.011Z,5.63
2018-04-06T04:30:51.584Z,8.60
2018-04-06T04:33:18.685Z,8.67
2018-04-06T04:35:45.242Z,7.70
2018-04-06T04:38:11.892Z,5.63
2018-04-06T04:40:38.495Z,7.60
2018-04-06T04:43:05.792Z,8.13
2018-04-06T04:45:32.375Z,6.77
2018-04-06T04:47:58.951Z,6.83
2018-04-06T04:50:25.511Z,7.73
2018-04-06T04:52:52.089Z,6.57
2018-04-06T04:55:18.722Z,6.83
2018-04-06T04:57:45.311Z,11.90
2018-04-06T05:00:11.883Z,6.50
2018-04-06T05:02:38.460Z,10.33
2018-04-06T05:05:05.045Z,9.53
2018-04-06T05:07:31.611Z,11.10
2018-04-06T05:09:58.559Z,13.23
2018-04-06T05:12:25.139Z,10.20
2018-04-06T05:14:51.754Z,12.97
2018-04-06T05:17:18.331Z,9.87
2018-04-06T05:19:44.905Z,11.17
2018-04-06T05:22:11.513Z,16.47
2018-04-06T05:24:38.128Z,16.97
2018-04-06T05:27:04.679Z,9.27
2018-04-06T05:29:31.273Z,10.70
2018-04-06T05:31:57.947Z,8.97
2018-04-06T05:34:24.515Z,10.23
2018-04-06T05:36:51.411Z,9.30
2018-04-06T05:39:17.991Z,12.57
2018-04-06T05:41:44.565Z,13.10
2018-04-06T05:44:11.151Z,10.60
2018-04-06T05:46:37.763Z,13.60
2018-04-06T05:49:04.338Z,10.87
2018-04-06T05:51:30.929Z,12.73
2018-04-06T05:53:57.495Z,9.60
2018-04-06T05:56:24.072Z,12.30
2018-04-06T05:58:50.661Z,15.17
2018-04-06T06:01:17.228Z,14.43
2018-04-06T06:03:43.800Z,8.93
2018-04-06T06:06:10.379Z,11.00
2018-04-06T06:08:36.955Z,11.17
2018-04-06T06:11:03.520Z,9.70
2018-04-06T06:13:30.111Z,10.83
2018-04-06T06:15:56.687Z,10.80
2018-04-06T06:18:23.258Z,12.30
2018-04-06T06:20:49.840Z,8.57
2018-04-06T06:23:16.471Z,11.93
2018-04-06T06:25:42.992Z,12.70
2018-04-06T06:28:09.830Z,10.60
2018-04-06T06:30:36.407Z,10.23
2018-04-06T06:33:02.976Z,13.07
2018-04-06T06:35:29.560Z,12.23
2018-04-06T06:37:56.153Z,12.23
2018-04-06T06:40:22.750Z,13.97
2018-04-06T06:42:49.316Z,8.77
2018-04-06T06:45:15.881Z,9.50
2018-04-06T06:47:42.467Z,18.07
2018-04-06T06:50:09.388Z,13.30
2018-04-06T06:52:35.959Z,13.10
2018-04-06T06:55:02.528Z,10.83
2018-04-06T06:57:29.139Z,12.40
2018-04-06T06:59:55.707Z,11.03
2018-04-06T07:02:22.288Z,13.73
2018-04-06T07:04:48.867Z,11.47
2018-04-06T07:07:15.447Z,13.23
2018-04-06T07:09:42.015Z,13.13
2018-04-06T07:12:08.642Z,15.43
2018-04-06T07:14:35.302Z,12.13
2018-04-06T07:17:01.885Z,11.30
2018-04-06T07:19:28.531Z,11.10
2018-04-06T07:21:55.108Z,10.40
2018-04-06T07:24:21.687Z,10.13
2018-04-06T07:26:48.282Z,13.10
2018-04-06T07:29:14.867Z,15.20
2018-04-06T07:31:41.438Z,7.77
2018-04-06T07:34:08.026Z,10.53
2018-04-06T07:36:34.612Z,10.37
2018-04-06T07:39:01.188Z,12.63
2018-04-06T07:41:27.770Z,11.60
2018-04-06T07:43:54.341Z,9.80
2018-04-06T07:46:20.903Z,9.70
2018-04-06T07:48:47.778Z,6.07
2018-04-06T07:51:14.335Z,6.17
2018-04-06T07:53:40.895Z,6.63
2018-04-06T07:56:07.487Z,10.10
2018-04-06T07:58:34.055Z,8.40
2018-04-06T08:01:00.622Z,4.87
2018-04-06T08:03:27.231Z,10.13
2018-04-06T08:05:53.774Z,8.97
2018-04-06T08:08:20.342Z,7.30
2018-04-06T08:10:46.962Z,8.23
2018-04-06T08:13:13.535Z,7.23
2018-04-06T08:15:40.139Z,12.23
2018-04-06T08:18:06.732Z,8.13
2018-04-06T08:20:43.657Z,5.23
2018-04-06T08:23:10.214Z,6.57
2018-04-06T08:25:36.806Z,9.07
2018-04-06T08:28:03.380Z,8.20
2018-04-06T08:30:29.951Z,4.83
2018-04-06T08:32:56.520Z,9.17
2018-04-06T08:35:23.092Z,6.93
2018-04-06T08:37:49.687Z,5.80
2018-04-06T08:40:16.258Z,5.63
2018-04-06T08:42:42.831Z,7.10
2018-04-06T08:45:09.671Z,5.27
2018-04-06T08:47:36.262Z,3.83
2018-04-06T08:50:03.223Z,6.60
2018-04-06T08:52:29.778Z,7.60
2018-04-06T08:54:56.364Z,5.53
2018-04-06T08:57:22.950Z,4.60
2018-04-06T08:59:49.580Z,5.47
2018-04-06T09:02:16.143Z,4.27
2018-04-06T09:04:42.808Z,5.43
2018-04-06T09:07:09.312Z,3.70
2018-04-06T09:09:35.899Z,5.00
2018-04-06T09:12:02.451Z,3.17
2018-04-06T09:14:29.053Z,3.63
2018-04-06T09:16:55.704Z,2.40
2018-04-06T09:19:22.283Z,4.97
2018-04-06T09:21:48.883Z,4.53
2018-04-06T09:24:15.448Z,3.17
2018-04-06T09:26:42.026Z,6.50
2018-04-06T09:29:08.669Z,3.23
2018-04-06T09:31:35.293Z,6.30
2018-04-06T09:34:01.864Z,1.97
2018-04-06T09:36:28.439Z,2.20
2018-04-06T09:38:55.013Z,1.83
2018-04-06T09:41:21.587Z,3.17
2018-04-06T09:43:48.163Z,2.00
2018-04-06T09:46:14.739Z,3.13
2018-04-06T09:48:41.312Z,2.03
2018-04-06T09:51:07.943Z,1.83
2018-04-06T09:53:34.507Z,2.47
2018-04-06T09:56:01.074Z,1.80
2018-04-06T09:58:27.659Z,2.10
2018-04-06T10:00:58.035Z,3.43
2018-04-06T10:03:24.607Z,4.20
2018-04-06T10:05:51.184Z,2.50
2018-04-06T10:08:17.751Z,2.07
2018-04-06T10:10:44.315Z,2.27
2018-04-06T10:13:10.899Z,3.47
2018-04-06T10:15:37.462Z,2.03
2018-04-06T10:18:04.028Z,5.30
2018-04-06T10:20:30.603Z,2.00
2018-04-06T10:22:57.168Z,2.50
2018-04-06T10:25:23.736Z,4.73
2018-04-06T10:27:50.319Z,2.50
2018-04-06T10:30:16.885Z,2.50
2018-04-06T10:32:43.454Z,2.50
2018-04-06T10:35:10.053Z,4.43
2018-04-06T10:37:36.607Z,2.20
2018-04-06T10:40:03.191Z,5.90
2018-04-06T10:42:29.781Z,2.53
2018-04-06T10:44:56.349Z,4.87
2018-04-06T10:47:22.926Z,6.23
2018-04-06T10:49:49.530Z,2.30
2018-04-06T10:52:16.085Z,3.70
2018-04-06T10:54:42.663Z,4.80
2018-04-06T10:57:09.582Z,3.03
2018-04-06T10:59:36.159Z,3.00
2018-04-06T11:02:02.723Z,2.07
2018-04-06T11:04:29.303Z,2.20
2018-04-06T11:06:55.871Z,1.70
2018-04-06T11:09:22.449Z,2.23
2018-04-06T11:11:49.020Z,5.10
2018-04-06T11:14:15.587Z,4.70
2018-04-06T11:16:42.172Z,6.20
2018-04-06T11:19:08.747Z,3.00
2018-04-06T11:21:35.316Z,3.03
2018-04-06T11:24:01.892Z,2.17
2018-04-06T11:26:28.458Z,2.30
2018-04-06T11:28:55.059Z,2.70
2018-04-06T11:31:21.629Z,2.07
2018-04-06T11:33:48.198Z,1.93
2018-04-06T11:36:14.793Z,2.40
2018-04-06T11:38:41.356Z,1.80
2018-04-06T11:41:07.933Z,4.27
2018-04-06T11:43:34.503Z,5.60
2018-04-06T11:46:01.065Z,1.87
2018-04-06T11:48:27.639Z,2.77
2018-04-06T11:50:54.218Z,2.00
2018-04-06T11:53:20.790Z,2.00
2018-04-06T11:55:47.365Z,2.03
2018-04-06T11:58:13.928Z,3.23
2018-04-06T12:00:40.502Z,2.10
2018-04-06T12:03:07.094Z,5.33
2018-04-06T12:05:33.675Z,2.50
2018-04-06T12:08:00.238Z,1.80
2018-04-06T12:10:26.821Z,2.00
2018-04-06T12:12:53.390Z,2.13
2018-04-06T12:15:19.979Z,3.30
2018-04-06T12:17:46.555Z,7.83
2018-04-06T12:20:13.119Z,1.73
2018-04-06T12:22:39.688Z,3.27
2018-04-06T12:25:06.262Z,2.77
2018-04-06T12:27:32.832Z,1.77
2018-04-06T12:29:59.398Z,2.50
2018-04-06T12:32:25.978Z,3.27
2018-04-06T12:34:52.552Z,3.10
2018-04-06T12:37:19.118Z,3.00
2018-04-06T12:39:46.031Z,1.80
2018-04-06T12:42:12.599Z,1.80
2018-04-06T12:44:39.167Z,1.97
2018-04-06T12:47:05.746Z,2.53
2018-04-06T12:49:32.327Z,1.87
2018-04-06T12:51:58.969Z,5.80
2018-04-06T12:54:25.512Z,3.43
2018-04-06T12:56:52.093Z,2.93
2018-04-06T12:59:18.668Z,3.03
2018-04-06T13:01:45.245Z,9.00
2018-04-06T13:04:11.827Z,2.93
2018-04-06T13:06:38.389Z,3.33
2018-04-06T13:09:04.974Z,10.53
2018-04-06T13:11:31.539Z,3.57
2018-04-06T13:13:58.107Z,2.10
2018-04-06T13:16:24.676Z,2.50
2018-04-06T13:18:51.250Z,2.33
2018-04-06T13:21:17.832Z,2.00
2018-04-06T13:23:44.394Z,2.40
2018-04-06T13:26:10.966Z,4.70
2018-04-06T13:28:37.553Z,3.87
2018-04-06T13:31:04.160Z,2.40
2018-04-06T13:33:30.739Z,4.43
2018-04-06T13:35:57.307Z,6.20
2018-04-06T13:38:23.890Z,2.63
2018-04-06T13:40:50.459Z,1.97
2018-04-06T13:43:17.031Z,2.70
2018-04-06T13:45:43.613Z,2.20
2018-04-06T13:48:10.180Z,2.30
2018-04-06T13:50:36.784Z,2.70
2018-04-06T13:53:03.331Z,3.70
2018-04-06T13:55:29.925Z,2.60
2018-04-06T13:57:56.479Z,3.40
2018-04-06T14:00:23.053Z,2.97
2018-04-06T14:02:49.682Z,3.33
2018-04-06T14:05:16.243Z,2.20
2018-04-06T14:07:42.819Z,3.50
2018-04-06T14:10:09.399Z,2.47
2018-04-06T14:12:35.963Z,4.93
2018-04-06T14:15:02.549Z,4.30
2018-04-06T14:17:29.107Z,3.27
2018-04-06T14:19:55.675Z,2.93
2018-04-06T14:22:22.251Z,5.87
2018-04-06T14:24:48.827Z,2.50
2018-04-06T14:27:15.394Z,3.77
2018-04-06T14:29:41.979Z,3.00
2018-04-06T14:32:08.539Z,2.77
2018-04-06T14:34:35.123Z,2.10
2018-04-06T14:37:01.711Z,5.43
2018-04-06T14:39:28.280Z,2.30
2018-04-06T14:41:54.859Z,4.60
2018-04-06T14:44:21.431Z,4.00
2018-04-06T14:46:47.998Z,3.27
2018-04-06T14:49:14.576Z,4.63
2018-04-06T14:51:41.147Z,5.73
2018-04-06T14:54:07.722Z,6.80
2018-04-06T14:56:34.309Z,7.43
2018-04-06T14:59:00.903Z,3.80
2018-04-06T15:01:27.479Z,2.20
2018-04-06T15:03:54.051Z,3.80
2018-04-06T15:06:20.649Z,6.37
2018-04-06T15:08:47.198Z,3.13
2018-04-06T15:11:13.775Z,3.33
2018-04-06T15:13:40.351Z,2.57
2018-04-06T15:16:06.957Z,2.13
2018-04-06T15:18:33.532Z,2.10
2018-04-06T15:21:00.097Z,3.03
2018-04-06T15:23:26.672Z,2.60
2018-04-06T15:25:53.247Z,3.33
2018-04-06T15:28:19.834Z,2.70
2018-04-06T15:30:46.403Z,3.03
2018-04-06T15:33:13.024Z,2.73
2018-04-06T15:35:39.599Z,3.20
2018-04-06T15:38:06.172Z,4.57
2018-04-06T15:40:32.751Z,2.13
2018-04-06T15:42:59.319Z,3.30
2018-04-06T15:45:25.897Z,5.80
2018-04-06T15:47:52.461Z,1.90
2018-04-06T15:50:19.053Z,2.17
2018-04-06T15:52:45.641Z,2.63
2018-04-06T15:55:12.208Z,2.40
2018-04-06T15:57:38.787Z,2.27
2018-04-06T16:00:05.415Z,5.20
2018-04-06T16:02:32.007Z,2.00
2018-04-06T16:04:58.719Z,3.50
2018-04-06T16:07:25.279Z,5.17
2018-04-06T16:09:51.860Z,2.10
2018-04-06T16:12:18.427Z,2.90
2018-04-06T16:14:45.023Z,4.23
2018-04-06T16:17:11.587Z,1.97
2018-04-06T16:19:38.151Z,2.00
2018-04-06T16:22:04.738Z,3.43
2018-04-06T16:24:31.304Z,5.07
2018-04-06T16:26:57.884Z,5.37
2018-04-06T16:29:24.461Z,3.03
2018-04-06T16:31:51.038Z,2.33
2018-04-06T16:34:17.614Z,4.23
2018-04-06T16:36:44.211Z,2.73
2018-04-06T16:39:10.783Z,4.00
2018-04-06T16:41:37.353Z,1.70
2018-04-06T16:44:03.926Z,4.53
2018-04-06T16:46:30.523Z,2.40
2018-04-06T16:48:57.087Z,2.10
2018-04-06T16:51:23.674Z,3.00
2018-04-06T16:53:50.236Z,2.63
2018-04-06T16:56:16.842Z,2.63
2018-04-06T16:58:43.442Z,1.67
2018-04-06T17:01:09.992Z,2.60
2018-04-06T17:03:36.572Z,5.60
2018-04-06T17:06:03.161Z,2.20
2018-04-06T17:08:29.728Z,1.70
2018-04-06T17:10:56.295Z,3.53
2018-04-06T17:13:22.875Z,4.00
2018-04-06T17:15:49.451Z,3.93
2018-04-06T17:18:16.063Z,1.50
2018-04-06T17:20:42.635Z,2.90
2018-04-06T17:23:09.210Z,2.00
2018-04-06T17:25:35.820Z,2.10
2018-04-06T17:28:02.347Z,2.83
2018-04-06T17:30:28.921Z,2.40
2018-04-06T17:32:55.511Z,2.50
2018-04-06T17:35:22.093Z,1.87
2018-04-06T17:37:48.659Z,4.40
2018-04-06T17:40:15.247Z,3.07
2018-04-06T17:42:41.818Z,1.77
2018-04-06T17:45:08.392Z,3.00
2018-04-06T17:47:34.971Z,2.30
2018-04-06T17:50:01.558Z,2.13
2018-04-06T17:52:28.135Z,1.97
2018-04-06T17:54:54.770Z,2.47
2018-04-06T17:57:21.356Z,2.13
2018-04-06T17:59:47.919Z,5.47
2018-04-06T18:02:14.486Z,2.33
2018-04-06T18:04:41.063Z,3.30
2018-04-06T18:07:07.635Z,3.20
2018-04-06T18:09:34.223Z,2.23
2018-04-06T18:12:00.783Z,2.00
2018-04-06T18:14:27.355Z,3.90
2018-04-06T18:16:53.923Z,1.83
2018-04-06T18:19:20.748Z,2.37
2018-04-06T18:21:47.334Z,1.90
2018-04-06T18:24:13.911Z,3.17
2018-04-06T18:29:25.239Z,3.33
2018-04-06T18:31:51.830Z,2.03
2018-04-06T18:34:18.403Z,1.67
2018-04-06T18:36:44.970Z,1.70
2018-04-06T18:39:11.555Z,2.53
2018-04-06T18:41:38.123Z,3.03
2018-04-06T18:44:04.715Z,1.97
2018-04-06T18:46:31.307Z,3.53
2018-04-06T18:48:57.867Z,2.23
2018-04-06T18:51:24.450Z,1.90
2018-04-06T18:53:51.017Z,2.60
2018-04-06T18:56:17.591Z,3.80
2018-04-06T18:58:44.182Z,1.90
2018-04-06T19:01:10.744Z,2.00
2018-04-06T19:03:37.314Z,1.90
2018-04-06T19:06:03.941Z,2.10
2018-04-06T19:08:30.531Z,1.70
2018-04-06T19:10:57.115Z,3.10
2018-04-06T19:13:23.687Z,3.97
2018-04-06T19:15:50.255Z,2.30
2018-04-06T19:18:16.836Z,2.40
2018-04-06T19:20:43.419Z,2.53
2018-04-06T19:23:10.020Z,3.53
2018-04-06T19:25:36.593Z,2.23
2018-04-06T19:28:03.166Z,2.53
2018-04-06T19:30:29.738Z,2.60
2018-04-06T19:32:56.316Z,2.20
2018-04-06T19:35:22.946Z,2.30
2018-04-06T19:37:49.491Z,2.30
2018-04-06T19:40:16.091Z,2.37
2018-04-06T19:42:42.660Z,3.00
2018-04-06T19:45:09.227Z,2.90
2018-04-06T19:47:35.799Z,2.30
2018-04-06T19:50:02.374Z,3.60
2018-04-06T19:52:28.943Z,3.70
2018-04-06T19:54:55.619Z,8.93
2018-04-06T19:57:22.243Z,3.50
2018-04-06T19:59:48.819Z,3.20
2018-04-06T20:02:15.399Z,2.73
2018-04-06T20:04:41.977Z,4.33
2018-04-06T20:07:08.550Z,3.40
2018-04-06T20:09:35.133Z,4.33
2018-04-06T20:12:01.700Z,4.90
2018-04-06T20:14:28.304Z,3.80
2018-04-06T20:16:54.882Z,2.60
2018-04-06T20:19:21.468Z,4.10
2018-04-06T20:21:48.047Z,3.67
2018-04-06T20:24:14.638Z,4.30
2018-04-06T20:26:41.203Z,3.27
2018-04-06T20:29:07.790Z,3.80
2018-04-06T20:31:34.375Z,2.70
2018-04-06T20:34:00.957Z,5.47
2018-04-06T20:36:27.571Z,5.97
2018-04-06T20:38:54.146Z,7.13
2018-04-06T20:41:20.720Z,3.53
2018-04-06T20:43:47.289Z,4.00
2018-04-06T20:46:13.863Z,3.17
2018-04-06T20:48:40.432Z,3.53
2018-04-06T20:51:06.999Z,2.90
2018-04-06T20:53:33.580Z,3.10
2018-04-06T20:56:00.155Z,4.83
2018-04-06T20:58:26.753Z,3.23
2018-04-06T21:00:53.319Z,3.70
2018-04-06T21:03:19.894Z,5.37
2018-04-06T21:05:46.474Z,2.60
2018-04-06T21:08:13.056Z,2.80
2018-04-06T21:10:39.623Z,3.30
2018-04-06T21:13:06.200Z,3.03
2018-04-06T21:15:32.773Z,3.47
2018-04-06T21:17:59.364Z,5.47
2018-04-06T21:20:25.960Z,3.00
2018-04-06T21:22:52.532Z,3.00
2018-04-06T21:25:19.116Z,3.30
2018-04-06T21:27:45.779Z,3.90
2018-04-06T21:30:12.383Z,4.00
2018-04-06T21:32:38.951Z,4.70
2018-04-06T21:35:05.515Z,6.20
2018-04-06T21:37:32.091Z,3.60
2018-04-06T21:39:59.288Z,3.20
2018-04-06T21:42:25.878Z,3.03
2018-04-06T21:44:52.464Z,3.67
2018-04-06T21:47:19.051Z,3.50
2018-04-06T21:53:15.419Z,3.57
2018-04-06T21:55:42.037Z,4.00
2018-04-06T21:58:10.587Z,3.40
2018-04-06T22:00:37.171Z,3.40
2018-04-06T22:03:03.787Z,5.93
2018-04-06T22:05:30.338Z,3.53
2018-04-06T22:07:56.923Z,3.57
2018-04-06T22:10:23.503Z,3.43
2018-04-06T22:12:50.081Z,5.20
2018-04-06T22:15:16.655Z,4.20
2018-04-06T22:17:43.245Z,3.53
2018-04-06T22:20:09.824Z,4.03
2018-04-06T22:22:36.387Z,3.90
2018-04-06T22:25:02.955Z,3.77
2018-04-06T22:27:29.527Z,3.57
2018-04-06T22:29:56.098Z,3.60
2018-04-06T22:32:22.718Z,5.70
2018-04-06T22:34:49.278Z,3.67
2018-04-06T22:37:15.863Z,5.27
2018-04-06T22:39:42.435Z,3.60
2018-04-06T22:42:09.051Z,4.20
2018-04-06T22:44:35.627Z,3.83
2018-04-06T22:47:02.199Z,4.10
2018-04-06T22:49:28.809Z,3.80
2018-04-06T22:51:55.434Z,4.27
2018-04-06T22:54:22.029Z,4.27
2018-04-06T22:56:48.593Z,5.03
2018-04-06T22:59:15.466Z,4.80
2018-04-06T23:01:42.040Z,3.70
2018-04-06T23:04:08.611Z,6.20
2018-04-06T23:06:35.184Z,3.57
2018-04-06T23:09:01.806Z,3.53
2018-04-06T23:11:28.410Z,3.73
2018-04-06T23:13:54.967Z,3.70
2018-04-06T23:16:21.555Z,3.40
2018-04-06T23:18:48.131Z,3.77
2018-04-06T23:21:14.728Z,4.10
2018-04-06T23:23:41.300Z,4.03
2018-04-06T23:26:07.871Z,4.93
2018-04-06T23:28:34.443Z,4.13
2018-04-06T23:31:01.016Z,4.60
2018-04-06T23:33:27.588Z,3.80
2018-04-06T23:35:54.152Z,7.00
2018-04-06T23:38:20.731Z,4.10
2018-04-06T23:40:47.312Z,4.00
2018-04-06T23:43:13.911Z,5.90
2018-04-06T23:45:40.471Z,4.13
2018-04-06T23:48:07.041Z,5.03
2018-04-06T23:50:33.624Z,4.20
2018-04-06T23:53:00.190Z,3.63
2018-04-06T23:55:26.771Z,3.73
2018-04-06T23:57:53.339Z,3.90
